Main page
METAR-TAF:

METAR-TAF

Airports :

Utti Airport

Utti, Finland

latitude: 60-54N, longitude: 026-56E, elevation: 100 m

Current weather observation

The report was made 29 minutes ago, at 13:20 UTC
Wind 6 kt from the Southwest
Temperature 1°C
Humidity 86%
Pressure 996 hPa
Visibility 10 km or more
no clouds below 1500 m and no cumulonimbus

METAR: EFUT 241320Z AUTO 23006KT CAVOK 01/M01 Q0996

Time: 15:49 (13:49 UTC)

Forecast

The report was made 5 hours and 24 minutes ago, at 08:25 UTC
Forecast valid from 24 at 09 UTC to 24 at 13 UTC
Wind 7 kt from the West
Visibility 10 km or more
no clouds below 1500 m and no cumulonimbus

TAF: EFUT 240825Z 2409/2413 28007KT CAVOK

Weather observations and forecasts of more than 4000 airports (METAR and TAF reports).

The available stations are represented by yellow and red dots on the map.

Hover mouse over dot to see the name of the station.

Then click to see weather observations and forecasts.

To change the map : click on the green buttons with a black cross to zoom in, on the green button with a dash to zoom out, or on the green arrows for adjacent maps.


METAR-TAF: